Time;durP1;ratioP1;P1;durP2;ratioP2;P2;SDS_P1;SDS_P2;PMS_P1;PMS_P2;Temp;Humidity;BMP_temperature;BMP_pressure;BME280_temperature;BME280_humidity;BME280_pressure;Samples;Min_cycle;Max_cycle;Signal;HPM_P1;HPM_P2
2022/05/08 00:00:16;;;;;;;18.65;6.28;;;11.60;99.90;;;;;;5031769;28;20045;-59
2022/05/08 00:02:44;;;;;;;19.52;5.80;;;11.50;99.90;;;;;;5032346;28;20049;-58
2022/05/08 00:05:14;;;;;;;18.55;6.32;;;11.50;99.90;;;;;;5023727;28;20531;-59
2022/05/08 00:07:41;;;;;;;17.98;6.22;;;11.50;99.90;;;;;;5025604;28;20534;-59
2022/05/08 00:10:09;;;;;;;20.63;6.28;;;11.50;99.90;;;;;;5030861;28;20037;-59
2022/05/08 00:12:37;;;;;;;20.83;6.13;;;11.40;99.90;;;;;;5031326;28;20452;-58
2022/05/08 00:15:06;;;;;;;20.23;6.20;;;11.40;99.90;;;;;;5030002;28;20037;-59
2022/05/08 00:17:36;;;;;;;16.30;5.45;;;11.40;99.90;;;;;;5031342;28;20073;-58
2022/05/08 00:20:07;;;;;;;22.77;6.35;;;11.40;99.90;;;;;;5023699;28;20488;-59
2022/05/08 00:22:35;;;;;;;20.85;5.45;;;11.30;99.90;;;;;;5030247;28;20046;-60
2022/05/08 00:25:03;;;;;;;18.90;5.15;;;11.30;99.90;;;;;;5031068;28;20053;-59
2022/05/08 00:27:31;;;;;;;17.17;5.70;;;11.40;99.90;;;;;;5028247;28;20033;-59
2022/05/08 00:29:58;;;;;;;20.10;5.63;;;11.30;99.90;;;;;;5030625;28;20513;-59
2022/05/08 00:32:27;;;;;;;21.60;5.88;;;11.30;99.90;;;;;;5031638;28;20049;-64
2022/05/08 00:34:56;;;;;;;17.20;6.20;;;11.30;99.90;;;;;;5028828;28;20033;-64
2022/05/08 00:37:24;;;;;;;18.63;6.00;;;11.30;99.90;;;;;;5029101;28;20037;-62
2022/05/08 00:39:51;;;;;;;17.73;6.03;;;11.30;99.90;;;;;;5030968;28;20054;-64
2022/05/08 00:42:19;;;;;;;28.70;6.03;;;11.30;99.90;;;;;;5030333;28;20041;-64
2022/05/08 00:44:47;;;;;;;18.30;6.13;;;11.30;99.90;;;;;;5028985;28;20076;-60
2022/05/08 00:47:14;;;;;;;19.67;5.80;;;11.30;99.90;;;;;;5030749;28;20497;-59
2022/05/08 00:49:42;;;;;;;15.70;5.68;;;11.30;99.90;;;;;;5029216;28;20049;-59
2022/05/08 00:52:15;;;;;;;19.05;5.70;;;11.30;99.90;;;;;;5028589;28;20060;-59
2022/05/08 00:54:43;;;;;;;21.20;6.32;;;11.30;99.90;;;;;;5029726;28;20512;-59
2022/05/08 00:57:12;;;;;;;24.85;6.53;;;11.20;99.90;;;;;;5030576;28;20048;-60
2022/05/08 00:59:40;;;;;;;20.90;6.03;;;11.20;99.90;;;;;;5030408;28;20033;-60
2022/05/08 01:02:08;;;;;;;20.25;6.32;;;11.20;99.90;;;;;;5028642;28;20045;-59
2022/05/08 01:04:35;;;;;;;22.15;7.15;;;11.20;99.90;;;;;;5026152;28;20386;-62
2022/05/08 01:07:04;;;;;;;20.45;6.38;;;11.10;99.90;;;;;;5027890;28;20045;-60
2022/05/08 01:09:31;;;;;;;18.65;6.57;;;11.10;99.90;;;;;;5046427;28;20049;-60
2022/05/08 01:12:00;;;;;;;27.42;7.32;;;11.10;99.90;;;;;;5019467;28;20056;-59
2022/05/08 01:14:27;;;;;;;27.38;7.47;;;11.10;99.90;;;;;;5026739;28;20041;-59
2022/05/08 01:16:56;;;;;;;26.42;6.43;;;11.10;99.90;;;;;;5026566;28;20049;-60
2022/05/08 01:19:24;;;;;;;21.95;6.82;;;11.00;99.90;;;;;;5028908;28;20041;-60
2022/05/08 01:21:51;;;;;;;26.23;7.35;;;11.00;99.90;;;;;;5029100;28;20041;-59
2022/05/08 01:24:22;;;;;;;30.50;7.43;;;11.00;99.90;;;;;;5028181;28;20045;-61
2022/05/08 01:26:50;;;;;;;24.27;6.70;;;11.00;99.90;;;;;;5019925;28;20045;-61
2022/05/08 01:29:18;;;;;;;20.75;6.88;;;10.90;99.90;;;;;;5028030;28;20049;-61
2022/05/08 01:31:46;;;;;;;22.48;6.65;;;10.90;99.90;;;;;;5020371;28;20073;-60
2022/05/08 01:34:14;;;;;;;18.05;5.78;;;10.80;99.90;;;;;;5024648;28;20045;-61
2022/05/08 01:36:41;;;;;;;25.85;7.00;;;10.80;99.90;;;;;;5029310;28;20044;-61
2022/05/08 01:39:09;;;;;;;21.00;6.30;;;10.80;99.90;;;;;;5030922;28;20048;-60
2022/05/08 01:41:37;;;;;;;19.98;6.57;;;10.80;99.90;;;;;;5029831;28;20409;-61
2022/05/08 01:44:04;;;;;;;22.58;7.10;;;10.80;99.90;;;;;;5027435;28;20046;-61
2022/05/08 01:46:32;;;;;;;24.25;6.38;;;10.70;99.90;;;;;;5026417;28;20056;-61
2022/05/08 01:49:00;;;;;;;23.30;6.32;;;10.70;99.90;;;;;;5028649;28;20049;-62
2022/05/08 01:51:27;;;;;;;21.35;6.90;;;10.70;99.90;;;;;;5030601;28;20049;-61
2022/05/08 01:53:55;;;;;;;21.83;7.15;;;10.70;99.90;;;;;;5029022;28;20053;-61
2022/05/08 01:56:22;;;;;;;22.58;7.05;;;10.70;99.90;;;;;;5032132;28;20132;-61
2022/05/08 01:58:50;;;;;;;17.27;6.55;;;10.60;99.90;;;;;;5029387;28;20046;-61
2022/05/08 02:01:18;;;;;;;22.23;7.38;;;10.60;99.90;;;;;;5028717;28;20045;-59
2022/05/08 02:03:45;;;;;;;22.75;6.65;;;10.60;99.90;;;;;;5027529;28;20056;-59
2022/05/08 02:06:16;;;;;;;22.58;6.15;;;10.60;99.90;;;;;;5028543;28;20045;-61
2022/05/08 02:08:46;;;;;;;22.42;6.75;;;10.50;99.90;;;;;;5029211;28;20044;-61
2022/05/08 02:11:13;;;;;;;19.25;6.18;;;10.50;99.90;;;;;;5030626;28;20034;-60
2022/05/08 02:13:41;;;;;;;21.02;6.43;;;10.50;99.90;;;;;;5027895;28;20542;-61
2022/05/08 02:16:11;;;;;;;20.10;7.65;;;10.50;99.90;;;;;;5030231;28;20041;-62
2022/05/08 02:18:39;;;;;;;21.52;7.95;;;10.50;99.90;;;;;;5032536;28;20497;-60
2022/05/08 02:21:06;;;;;;;23.63;7.55;;;10.50;99.90;;;;;;5033445;28;20056;-60
2022/05/08 02:23:34;;;;;;;20.85;6.57;;;10.50;99.90;;;;;;5028968;28;20053;-60
2022/05/08 02:26:02;;;;;;;21.92;7.50;;;10.40;99.90;;;;;;5030733;28;20056;-61
2022/05/08 02:28:29;;;;;;;17.40;6.65;;;10.50;99.90;;;;;;5028817;28;20048;-61
2022/05/08 02:30:57;;;;;;;24.92;7.82;;;10.40;99.90;;;;;;5029016;28;20065;-60
2022/05/08 02:33:25;;;;;;;25.58;7.43;;;10.40;99.90;;;;;;5028463;28;20511;-61
2022/05/08 02:35:52;;;;;;;28.08;8.15;;;10.40;99.90;;;;;;5030241;28;20056;-61
2022/05/08 02:38:20;;;;;;;25.67;8.35;;;10.40;99.90;;;;;;5029573;28;20037;-61
2022/05/08 02:40:48;;;;;;;25.40;7.60;;;10.40;99.90;;;;;;5029295;28;20061;-60
2022/05/08 02:43:18;;;;;;;19.92;7.85;;;10.50;99.90;;;;;;5028289;28;20052;-62
2022/05/08 02:45:45;;;;;;;23.58;7.57;;;10.40;99.90;;;;;;5028150;28;20057;-60
2022/05/08 02:48:14;;;;;;;20.88;7.38;;;10.40;99.90;;;;;;5031817;28;20057;-59
2022/05/08 02:50:41;;;;;;;23.60;7.68;;;10.40;99.90;;;;;;5032436;28;20420;-59
2022/05/08 02:53:09;;;;;;;29.52;7.80;;;10.40;99.90;;;;;;5028984;28;20046;-58
2022/05/08 02:58:34;;;;;;;29.65;7.78;;;10.40;99.90;;;;;;5028036;28;20053;-59
2022/05/08 03:01:05;;;;;;;23.40;7.38;;;10.40;99.90;;;;;;5018436;28;20404;-61
2022/05/08 03:03:34;;;;;;;24.60;7.97;;;10.40;99.90;;;;;;5032457;28;20052;-61
2022/05/08 03:06:03;;;;;;;24.65;7.63;;;10.40;99.90;;;;;;5031589;28;20050;-61
2022/05/08 03:08:31;;;;;;;26.13;7.40;;;10.40;99.90;;;;;;5034932;28;20042;-65
2022/05/08 03:13:45;;;;;;;29.08;8.70;;;10.40;99.90;;;;;;5029111;28;20517;-65
2022/05/08 03:16:13;;;;;;;32.50;8.68;;;10.40;99.90;;;;;;5034579;28;20415;-65
2022/05/08 03:18:41;;;;;;;35.85;7.68;;;10.30;99.90;;;;;;5034650;28;20048;-59
2022/05/08 03:21:09;;;;;;;23.70;8.18;;;10.40;99.90;;;;;;5030898;28;20056;-60
2022/05/08 03:23:39;;;;;;;32.60;9.07;;;10.30;99.90;;;;;;5033515;28;20037;-59
2022/05/08 03:26:07;;;;;;;26.40;8.15;;;10.30;99.90;;;;;;5033974;28;20050;-59
2022/05/08 03:28:40;;;;;;;31.63;8.65;;;10.30;99.90;;;;;;5033409;28;20044;-61
2022/05/08 03:31:09;;;;;;;26.10;8.13;;;10.30;99.90;;;;;;5033642;28;20049;-61
2022/05/08 03:33:38;;;;;;;19.98;7.20;;;10.30;99.90;;;;;;5030680;28;20038;-61
2022/05/08 03:36:06;;;;;;;33.17;8.77;;;10.30;99.90;;;;;;5034771;28;20086;-60
2022/05/08 03:38:35;;;;;;;33.75;8.73;;;10.30;99.90;;;;;;5032050;28;20092;-61
2022/05/08 03:41:02;;;;;;;29.52;7.28;;;10.30;99.90;;;;;;5033987;28;20041;-61
2022/05/08 03:43:30;;;;;;;30.15;7.82;;;10.30;99.90;;;;;;5030466;28;20048;-61
2022/05/08 03:45:58;;;;;;;29.67;7.97;;;10.30;99.90;;;;;;5032651;28;20737;-62
2022/05/08 03:48:25;;;;;;;22.42;7.13;;;10.20;99.90;;;;;;5030853;28;20045;-64
2022/05/08 03:50:53;;;;;;;22.83;7.28;;;10.20;99.90;;;;;;5031443;28;20037;-61
2022/05/08 03:53:21;;;;;;;21.02;7.20;;;10.20;99.90;;;;;;5031413;28;20044;-61
2022/05/08 03:55:48;;;;;;;23.08;7.38;;;10.20;99.90;;;;;;5033208;28;20060;-61
2022/05/08 03:58:17;;;;;;;20.95;7.70;;;10.20;99.90;;;;;;5032938;28;20053;-61
2022/05/08 04:00:44;;;;;;;27.15;7.90;;;10.10;99.90;;;;;;5033542;28;20053;-61
2022/05/08 04:03:12;;;;;;;30.60;7.82;;;10.10;99.90;;;;;;5031994;28;20050;-61
2022/05/08 04:05:40;;;;;;;28.23;7.68;;;10.10;99.90;;;;;;5031920;28;20068;-61
2022/05/08 04:08:08;;;;;;;25.00;7.75;;;10.10;99.90;;;;;;5030370;28;20115;-61
2022/05/08 04:10:38;;;;;;;23.75;6.88;;;10.10;99.90;;;;;;5031639;28;20393;-61
2022/05/08 04:13:06;;;;;;;22.85;7.00;;;10.10;99.90;;;;;;5032672;28;20045;-60
2022/05/08 04:18:20;;;;;;;20.92;6.72;;;10.10;99.90;;;;;;5032933;28;20037;-61
2022/05/08 04:20:47;;;;;;;21.10;6.78;;;10.10;99.90;;;;;;5029459;28;20065;-61
2022/05/08 04:26:01;;;;;;;27.80;7.43;;;10.00;99.90;;;;;;5032603;28;20052;-60
2022/05/08 04:28:29;;;;;;;26.55;7.30;;;10.00;99.90;;;;;;5030549;28;20057;-61
2022/05/08 04:30:56;;;;;;;31.13;6.82;;;10.00;99.90;;;;;;5030961;28;20060;-61
2022/05/08 04:33:24;;;;;;;26.67;8.02;;;10.00;99.90;;;;;;5025387;28;20049;-62
2022/05/08 04:35:51;;;;;;;20.60;7.22;;;10.00;99.90;;;;;;5032434;28;20041;-61
2022/05/08 04:38:19;;;;;;;21.73;6.47;;;10.00;99.90;;;;;;5032789;28;20378;-61
2022/05/08 04:40:47;;;;;;;31.00;7.50;;;10.00;99.90;;;;;;5032593;28;20413;-62
2022/05/08 04:43:14;;;;;;;26.65;7.32;;;10.00;99.90;;;;;;5029617;28;20041;-62
2022/05/08 04:45:42;;;;;;;30.20;7.55;;;10.00;99.90;;;;;;5028559;28;20485;-61
2022/05/08 04:48:09;;;;;;;26.38;7.13;;;10.00;99.90;;;;;;5018163;28;20038;-62
2022/05/08 04:50:39;;;;;;;20.88;7.35;;;10.00;99.90;;;;;;5020159;28;20053;-63
2022/05/08 04:53:07;;;;;;;31.35;8.00;;;10.00;99.90;;;;;;5017284;28;20056;-63
2022/05/08 04:55:34;;;;;;;25.90;8.55;;;10.00;99.90;;;;;;5027844;28;20046;-62
2022/05/08 04:58:02;;;;;;;29.00;7.22;;;10.00;99.90;;;;;;5027582;28;20045;-61
2022/05/08 05:00:30;;;;;;;22.40;7.90;;;10.00;99.90;;;;;;5027269;28;20505;-61
2022/05/08 05:02:57;;;;;;;29.58;7.60;;;10.00;99.90;;;;;;5020527;28;20045;-61
2022/05/08 05:05:25;;;;;;;24.20;6.60;;;10.10;99.90;;;;;;5018294;28;20048;-62
2022/05/08 05:07:53;;;;;;;46.03;9.38;;;10.10;99.90;;;;;;5026445;28;20057;-64
2022/05/08 05:10:21;;;;;;;31.85;7.78;;;10.10;99.90;;;;;;5008552;28;20049;-64
2022/05/08 05:12:49;;;;;;;21.77;7.13;;;10.10;99.90;;;;;;5024474;28;20060;-62
2022/05/08 05:15:16;;;;;;;25.48;8.70;;;10.10;99.90;;;;;;5026036;28;20046;-64
2022/05/08 05:17:44;;;;;;;24.17;7.40;;;10.20;99.90;;;;;;5027337;28;20425;-63
2022/05/08 05:20:12;;;;;;;42.47;8.00;;;10.10;99.90;;;;;;5022013;28;20041;-63
2022/05/08 05:22:39;;;;;;;27.75;7.65;;;10.10;99.90;;;;;;5025319;28;20080;-61
2022/05/08 05:25:08;;;;;;;27.15;6.68;;;10.10;99.90;;;;;;5027802;28;20192;-64
2022/05/08 05:27:38;;;;;;;23.67;7.53;;;10.20;99.90;;;;;;5028060;28;20050;-65
2022/05/08 05:30:06;;;;;;;22.42;7.45;;;10.20;99.90;;;;;;5029708;28;20049;-65
2022/05/08 05:32:34;;;;;;;28.23;7.03;;;10.20;99.90;;;;;;5021028;28;20056;-65
2022/05/08 05:35:02;;;;;;;33.63;7.80;;;10.20;99.90;;;;;;5021498;28;20064;-63
2022/05/08 05:37:29;;;;;;;28.52;7.05;;;10.20;99.90;;;;;;5029065;28;20056;-64
2022/05/08 05:39:57;;;;;;;18.02;6.60;;;10.20;99.90;;;;;;5030651;28;20056;-59
2022/05/08 05:42:25;;;;;;;30.30;7.53;;;10.20;99.90;;;;;;5024779;28;20045;-65
2022/05/08 05:44:54;;;;;;;33.78;8.65;;;10.30;99.90;;;;;;5023630;28;20049;-64
2022/05/08 05:50:09;;;;;;;30.77;7.05;;;10.30;99.90;;;;;;5015943;28;20045;-61
2022/05/08 05:52:37;;;;;;;25.27;6.38;;;10.30;99.90;;;;;;5026016;28;20053;-62
2022/05/08 05:55:06;;;;;;;23.38;7.68;;;10.30;99.90;;;;;;5026890;28;20046;-61
2022/05/08 05:57:35;;;;;;;28.02;6.30;;;10.30;99.90;;;;;;5026832;28;20487;-61
2022/05/08 06:00:09;;;;;;;23.40;6.45;;;10.30;99.90;;;;;;5028653;28;20057;-60
2022/05/08 06:02:43;;;;;;;17.90;7.18;;;10.30;99.90;;;;;;5025511;28;20523;-59
2022/05/08 06:05:12;;;;;;;24.38;6.80;;;10.40;99.90;;;;;;5020773;28;20062;-59
2022/05/08 06:07:42;;;;;;;20.15;5.70;;;10.40;99.90;;;;;;5021500;28;20057;-60
2022/05/08 06:10:11;;;;;;;16.88;5.68;;;10.40;99.90;;;;;;5027627;28;20037;-60
2022/05/08 06:12:40;;;;;;;24.20;6.60;;;10.40;99.90;;;;;;5025105;28;20050;-59
2022/05/08 06:15:09;;;;;;;16.10;5.78;;;10.50;99.90;;;;;;5026585;28;20048;-59
2022/05/08 06:17:37;;;;;;;23.35;6.38;;;10.40;99.90;;;;;;5025786;28;20528;-61
2022/05/08 06:20:06;;;;;;;23.45;5.32;;;10.40;99.90;;;;;;5024895;28;20412;-62
2022/05/08 06:22:35;;;;;;;17.95;5.28;;;10.40;99.90;;;;;;5026504;28;20049;-63
2022/05/08 06:25:06;;;;;;;21.05;5.45;;;10.40;99.90;;;;;;5027396;28;20053;-64
2022/05/08 06:27:34;;;;;;;19.05;5.45;;;10.40;99.90;;;;;;5027555;28;20056;-63
2022/05/08 06:30:02;;;;;;;13.23;5.68;;;10.40;99.90;;;;;;5024548;28;20053;-63
2022/05/08 06:32:30;;;;;;;28.20;5.50;;;10.50;99.90;;;;;;5023876;28;20049;-62
2022/05/08 06:35:18;;;;;;;23.45;5.38;;;10.50;99.90;;;;;;5020845;28;20045;-61
2022/05/08 06:37:46;;;;;;;23.98;6.28;;;10.50;99.90;;;;;;5017040;28;20052;-61
2022/05/08 06:40:13;;;;;;;16.85;5.20;;;10.50;99.90;;;;;;5020376;28;20045;-61
2022/05/08 06:42:41;;;;;;;23.30;5.88;;;10.60;99.90;;;;;;5027563;28;20480;-59
2022/05/08 06:45:09;;;;;;;25.33;6.30;;;10.60;99.90;;;;;;5028759;28;20049;-58
2022/05/08 06:47:37;;;;;;;24.80;5.40;;;10.70;99.90;;;;;;5025422;28;20072;-59
2022/05/08 06:50:05;;;;;;;18.52;5.65;;;10.70;99.90;;;;;;5025332;28;20034;-60
2022/05/08 06:52:33;;;;;;;15.65;5.45;;;10.60;99.90;;;;;;5025220;28;20049;-64
2022/05/08 06:55:01;;;;;;;20.83;5.07;;;10.60;99.90;;;;;;5026124;28;20041;-63
2022/05/08 06:57:28;;;;;;;14.35;4.30;;;10.60;99.90;;;;;;5026208;28;20144;-62
2022/05/08 07:02:43;;;;;;;23.58;5.72;;;10.60;99.90;;;;;;5018435;28;20054;-62
2022/05/08 07:05:11;;;;;;;23.58;5.57;;;10.60;99.90;;;;;;5019271;28;20490;-63
2022/05/08 07:07:38;;;;;;;19.45;5.53;;;10.60;99.90;;;;;;5025357;28;20053;-63
2022/05/08 07:10:06;;;;;;;15.57;5.78;;;10.70;99.90;;;;;;5026081;28;20417;-60
2022/05/08 07:12:37;;;;;;;19.92;5.30;;;10.70;99.90;;;;;;5018914;28;20045;-60
2022/05/08 07:15:05;;;;;;;23.38;6.50;;;10.70;99.90;;;;;;5028744;28;20402;-62
2022/05/08 07:17:33;;;;;;;15.48;4.43;;;10.70;99.90;;;;;;5027250;28;20053;-60
2022/05/08 07:20:02;;;;;;;24.77;6.38;;;10.70;99.90;;;;;;5026843;28;20076;-60
2022/05/08 07:22:39;;;;;;;23.95;5.93;;;10.70;99.90;;;;;;5008899;28;20400;-61
2022/05/08 07:25:07;;;;;;;17.15;5.07;;;10.70;99.90;;;;;;5028980;28;20042;-61
2022/05/08 07:27:39;;;;;;;22.35;5.20;;;10.70;99.90;;;;;;5026403;28;20045;-60
2022/05/08 07:30:07;;;;;;;17.80;4.95;;;10.70;99.90;;;;;;5025858;28;20045;-59
2022/05/08 07:32:35;;;;;;;27.58;5.85;;;10.70;99.90;;;;;;5026249;28;20057;-60
2022/05/08 07:37:50;;;;;;;26.58;6.85;;;10.70;99.90;;;;;;5023165;28;20058;-62
2022/05/08 07:40:17;;;;;;;16.95;5.40;;;10.70;99.90;;;;;;5023533;28;20046;-62
2022/05/08 07:42:46;;;;;;;27.27;5.75;;;10.70;99.90;;;;;;5023182;28;20504;-63
2022/05/08 07:45:14;;;;;;;25.85;5.28;;;10.80;99.90;;;;;;5026627;28;20048;-63
2022/05/08 07:47:43;;;;;;;20.77;5.22;;;10.80;99.90;;;;;;5021217;28;20056;-62
2022/05/08 07:50:10;;;;;;;19.23;5.00;;;10.80;99.90;;;;;;5026777;28;20050;-62
2022/05/08 07:52:41;;;;;;;25.98;5.72;;;10.90;99.90;;;;;;5027672;28;20056;-64
2022/05/08 07:55:09;;;;;;;17.90;5.18;;;10.90;99.90;;;;;;5031307;28;20048;-64
2022/05/08 07:57:37;;;;;;;20.00;5.97;;;10.90;99.90;;;;;;5026119;28;20041;-61
2022/05/08 08:00:05;;;;;;;13.95;4.75;;;10.90;99.90;;;;;;5023135;28;20042;-61
2022/05/08 08:02:40;;;;;;;26.17;4.90;;;11.00;99.90;;;;;;5021584;28;20061;-61
2022/05/08 08:05:08;;;;;;;18.23;5.05;;;11.00;99.90;;;;;;5027696;28;20072;-61
2022/05/08 08:07:36;;;;;;;22.13;4.97;;;11.00;99.90;;;;;;5029825;28;20064;-61
2022/05/08 08:10:04;;;;;;;22.35;5.85;;;11.00;99.90;;;;;;5006491;28;20046;-64
2022/05/08 08:12:33;;;;;;;22.42;5.57;;;11.00;99.90;;;;;;5028652;28;20068;-60
2022/05/08 08:15:01;;;;;;;39.42;6.28;;;11.10;99.90;;;;;;5011878;28;20100;-64
2022/05/08 08:17:29;;;;;;;28.27;6.07;;;11.10;99.90;;;;;;5023049;28;20056;-65
2022/05/08 08:19:57;;;;;;;25.63;5.15;;;11.20;99.90;;;;;;5027924;28;20046;-65
2022/05/08 08:22:25;;;;;;;27.30;5.68;;;11.20;99.90;;;;;;5040883;28;20042;-64
2022/05/08 08:24:54;;;;;;;20.57;5.97;;;11.30;99.90;;;;;;5020470;28;20057;-63
2022/05/08 08:27:22;;;;;;;20.85;5.60;;;11.30;99.90;;;;;;5028538;28;20042;-63
2022/05/08 08:29:50;;;;;;;22.50;4.65;;;11.30;99.90;;;;;;5016688;28;20033;-61
2022/05/08 08:32:23;;;;;;;21.10;5.38;;;11.30;99.90;;;;;;5009938;28;20132;-61
2022/05/08 08:34:53;;;;;;;16.10;4.88;;;11.40;99.90;;;;;;5026436;28;20045;-61
2022/05/08 08:37:20;;;;;;;21.93;5.43;;;11.40;99.90;;;;;;5017329;28;20766;-61
2022/05/08 08:39:48;;;;;;;18.73;4.50;;;11.40;99.90;;;;;;5024002;28;20048;-60
2022/05/08 08:42:22;;;;;;;16.67;4.18;;;11.40;99.90;;;;;;5025264;28;20049;-60
2022/05/08 08:47:52;;;;;;;20.42;4.53;;;11.40;99.90;;;;;;4967204;28;20699;-60
2022/05/08 08:50:26;;;;;;;18.55;4.40;;;11.30;99.90;;;;;;5028621;28;20054;-60
2022/05/08 08:52:58;;;;;;;15.25;5.18;;;11.30;99.90;;;;;;5026907;28;20068;-62
2022/05/08 08:55:26;;;;;;;14.70;4.40;;;11.40;99.90;;;;;;5026574;28;20375;-60
2022/05/08 08:57:54;;;;;;;17.45;5.10;;;11.30;99.90;;;;;;5025631;28;20045;-61
2022/05/08 09:00:22;;;;;;;19.60;5.32;;;11.30;99.90;;;;;;5021214;28;20037;-61
2022/05/08 09:02:53;;;;;;;11.20;5.07;;;11.30;99.90;;;;;;5024050;28;20510;-60
2022/05/08 09:05:24;;;;;;;15.93;5.20;;;11.40;99.90;;;;;;5031499;28;20504;-60
2022/05/08 09:07:53;;;;;;;12.52;5.78;;;11.40;99.90;;;;;;5021300;28;20056;-61
2022/05/08 09:10:24;;;;;;;17.55;5.75;;;11.40;99.90;;;;;;5019734;28;20037;-60
2022/05/08 09:12:52;;;;;;;23.92;6.25;;;11.50;99.90;;;;;;5015967;28;20046;-60
2022/05/08 09:15:27;;;;;;;14.23;5.60;;;11.50;99.90;;;;;;5008241;28;20038;-60
2022/05/08 09:18:12;;;;;;;17.17;5.47;;;11.60;99.90;;;;;;5015718;28;20046;-62
2022/05/08 09:20:41;;;;;;;18.38;5.72;;;11.70;99.90;;;;;;5028493;28;20045;-61
2022/05/08 09:23:10;;;;;;;25.45;7.05;;;11.80;99.90;;;;;;5029007;28;20053;-60
2022/05/08 09:26:00;;;;;;;19.33;6.78;;;11.80;99.90;;;;;;5029417;28;20042;-60
2022/05/08 09:28:42;;;;;;;15.15;6.45;;;11.90;99.90;;;;;;5029367;28;20061;-60
2022/05/08 09:31:12;;;;;;;21.27;6.70;;;11.90;99.90;;;;;;5028155;28;20048;-60
2022/05/08 09:33:40;;;;;;;18.55;6.65;;;12.00;99.90;;;;;;5028539;28;20401;-59
2022/05/08 09:36:16;;;;;;;21.60;6.80;;;12.00;99.90;;;;;;5029284;28;20038;-59
2022/05/08 09:38:51;;;;;;;17.33;7.15;;;12.00;99.90;;;;;;5028960;28;20049;-60
2022/05/08 09:41:18;;;;;;;19.17;7.18;;;12.00;99.90;;;;;;5029068;28;20054;-60
2022/05/08 09:43:47;;;;;;;17.15;7.00;;;11.90;99.90;;;;;;5028547;28;20741;-60
2022/05/08 09:46:15;;;;;;;18.52;8.27;;;11.90;99.90;;;;;;5028894;28;20041;-60
2022/05/08 09:48:43;;;;;;;24.17;7.97;;;11.90;99.90;;;;;;5023166;28;20053;-59
2022/05/08 09:51:13;;;;;;;26.85;9.70;;;11.80;99.90;;;;;;5030556;28;20049;-60
2022/05/08 09:53:41;;;;;;;;;;;11.80;99.90;;;;;;5030261;28;20054;-59
2022/05/08 09:56:11;;;;;;;20.73;7.95;;;11.80;99.90;;;;;;5030299;28;19921;-59
2022/05/08 09:58:43;;;;;;;;;;;11.80;99.90;;;;;;5030869;28;20104;-59
2022/05/08 10:01:13;;;;;;;18.27;7.82;;;11.80;99.90;;;;;;5029011;28;20284;-61
2022/05/08 10:03:43;;;;;;;18.95;8.32;;;11.80;99.90;;;;;;5010051;28;20056;-60
2022/05/08 10:06:11;;;;;;;;;;;11.90;99.90;;;;;;5028514;28;20052;-59
2022/05/08 10:08:41;;;;;;;18.13;7.97;;;12.00;99.90;;;;;;5029990;28;19921;-64
2022/05/08 10:14:10;;;;;;;21.50;7.93;;;12.10;99.90;;;;;;5029449;28;20046;-64
2022/05/08 10:17:04;;;;;;;28.05;9.40;;;12.20;99.90;;;;;;5027374;28;20057;-65
2022/05/08 10:19:31;;;;;;;20.20;7.82;;;12.20;99.90;;;;;;5030018;28;20049;-59
2022/05/08 10:22:14;;;;;;;16.52;7.95;;;12.30;99.90;;;;;;5030037;28;20041;-60
2022/05/08 10:24:53;;;;;;;18.42;8.23;;;12.40;99.90;;;;;;5028386;28;20057;-59
2022/05/08 10:27:32;;;;;;;21.23;8.52;;;12.40;99.90;;;;;;5029738;28;20374;-61
2022/05/08 10:30:01;;;;;;;19.90;7.90;;;12.50;99.90;;;;;;5029932;28;20045;-60
2022/05/08 10:32:34;;;;;;;25.35;9.63;;;12.60;99.90;;;;;;5021917;28;20437;-65
2022/05/08 10:35:15;;;;;;;15.40;8.20;;;12.70;99.90;;;;;;5022442;28;20068;-64
2022/05/08 10:37:50;;;;;;;20.85;7.72;;;12.70;99.90;;;;;;5029708;28;20064;-61
2022/05/08 10:40:23;;;;;;;20.60;7.72;;;12.80;99.90;;;;;;5029428;28;20076;-62
2022/05/08 10:42:54;;;;;;;16.00;7.22;;;12.80;99.90;;;;;;5029944;28;20037;-65
2022/05/08 10:45:34;;;;;;;23.13;8.90;;;12.90;99.90;;;;;;5029901;28;20611;-65
2022/05/08 10:48:09;;;;;;;21.77;7.47;;;12.90;99.90;;;;;;5025097;28;20053;-65
2022/05/08 10:50:40;;;;;;;18.65;8.23;;;13.00;99.90;;;;;;5029615;28;20053;-67
2022/05/08 10:53:26;;;;;;;21.00;7.45;;;13.20;99.90;;;;;;5029848;28;20048;-66
2022/05/08 10:56:05;;;;;;;20.75;7.82;;;13.30;99.90;;;;;;5029867;28;20064;-62
2022/05/08 10:58:34;;;;;;;23.05;7.35;;;13.40;99.90;;;;;;5029088;28;20487;-61
2022/05/08 11:01:04;;;;;;;15.77;8.23;;;13.50;99.90;;;;;;5028172;28;20380;-61
2022/05/08 11:03:35;;;;;;;20.23;8.07;;;13.60;99.90;;;;;;5011841;28;20050;-60
2022/05/08 11:06:05;;;;;;;19.08;8.05;;;13.60;99.90;;;;;;5006124;28;20053;-60
2022/05/08 11:08:35;;;;;;;18.55;7.38;;;13.60;99.90;;;;;;5022478;28;20042;-62
2022/05/08 11:11:09;;;;;;;18.85;7.90;;;13.70;99.90;;;;;;5029630;28;20054;-61
2022/05/08 11:13:37;;;;;;;16.13;8.10;;;13.70;99.90;;;;;;5029296;28;20045;-66
2022/05/08 11:16:05;;;;;;;19.23;8.15;;;13.80;99.90;;;;;;5031760;28;20048;-61
2022/05/08 11:18:33;;;;;;;18.92;7.63;;;14.00;99.90;;;;;;5026523;28;20052;-61
2022/05/08 11:21:02;;;;;;;18.55;8.30;;;14.10;99.90;;;;;;5029433;28;20049;-60
2022/05/08 11:23:33;;;;;;;17.98;8.77;;;14.20;99.90;;;;;;5031552;28;20049;-61
2022/05/08 11:26:02;;;;;;;;;;;14.30;99.90;;;;;;5033086;28;20052;-61
2022/05/08 11:28:30;;;;;;;18.17;8.57;;;14.50;99.90;;;;;;5032815;28;19921;-60
2022/05/08 11:30:59;;;;;;;15.32;7.63;;;14.60;99.90;;;;;;5032031;28;20393;-61
2022/05/08 11:36:30;;;;;;;24.15;8.98;;;14.80;99.90;;;;;;5018848;28;20033;-61
2022/05/08 11:38:59;;;;;;;13.60;7.75;;;15.00;99.90;;;;;;5032845;28;20060;-61
2022/05/08 11:41:33;;;;;;;19.35;8.65;;;15.10;99.90;;;;;;5032908;28;20045;-61
2022/05/08 11:44:16;;;;;;;16.52;8.80;;;15.20;99.90;;;;;;5032187;28;20085;-60
2022/05/08 11:46:49;;;;;;;13.95;7.07;;;15.30;99.90;;;;;;5032919;28;20054;-60
2022/05/08 11:49:21;;;;;;;15.70;9.10;;;15.40;99.90;;;;;;5030091;28;20516;-60
2022/05/08 11:52:00;;;;;;;15.40;7.43;;;15.40;99.90;;;;;;5033013;28;20054;-60
2022/05/08 11:54:33;;;;;;;12.73;7.55;;;15.30;99.90;;;;;;5031954;28;20403;-61
2022/05/08 11:57:14;;;;;;;12.32;6.90;;;15.40;99.90;;;;;;5030792;28;20053;-60
2022/05/08 11:59:43;;;;;;;13.73;7.38;;;15.40;99.90;;;;;;5012935;28;20053;-60
2022/05/08 12:02:12;;;;;;;10.98;7.57;;;15.50;99.90;;;;;;5013180;28;20061;-61
2022/05/08 12:04:41;;;;;;;11.85;7.38;;;15.50;99.90;;;;;;5012366;28;20054;-60
2022/05/08 12:07:11;;;;;;;12.75;7.30;;;15.50;99.90;;;;;;5012999;28;20046;-60
2022/05/08 12:09:59;;;;;;;14.15;7.40;;;15.60;99.90;;;;;;5031044;28;20064;-62
2022/05/08 12:12:32;;;;;;;13.80;7.28;;;15.70;99.90;;;;;;5014694;28;20049;-61
2022/05/08 12:15:15;;;;;;;10.23;6.93;;;15.70;99.90;;;;;;5032427;28;20057;-60
2022/05/08 12:17:43;;;;;;;12.05;6.93;;;15.80;99.90;;;;;;5031026;28;20053;-62
2022/05/08 12:20:25;;;;;;;12.32;6.95;;;15.90;99.90;;;;;;5031565;28;20064;-61
2022/05/08 12:23:07;;;;;;;13.38;7.78;;;15.90;99.90;;;;;;5030862;28;20049;-63
2022/05/08 12:25:38;;;;;;;15.40;7.57;;;16.00;99.90;;;;;;5031943;28;20050;-65
2022/05/08 12:28:07;;;;;;;12.68;7.55;;;16.20;99.90;;;;;;5014427;28;20053;-65
2022/05/08 12:30:35;;;;;;;14.20;7.53;;;16.50;99.90;;;;;;5032575;28;20512;-66
2022/05/08 12:33:03;;;;;;;14.45;8.13;;;16.80;99.90;;;;;;5026352;28;20045;-64
2022/05/08 12:35:31;;;;;;;17.30;8.98;;;17.00;99.90;;;;;;5011030;28;20050;-66
2022/05/08 12:37:59;;;;;;;14.75;7.78;;;17.10;99.90;;;;;;5017981;28;20041;-67
2022/05/08 12:40:27;;;;;;;16.40;8.88;;;17.10;99.90;;;;;;5031167;28;20504;-66
2022/05/08 12:42:54;;;;;;;13.02;7.85;;;17.10;99.90;;;;;;5031643;28;20053;-67
2022/05/08 12:45:22;;;;;;;15.32;8.05;;;17.10;99.90;;;;;;5031829;28;20057;-66
2022/05/08 12:47:49;;;;;;;17.10;7.82;;;17.10;99.90;;;;;;5029553;28;20038;-65
2022/05/08 12:50:17;;;;;;;14.60;8.20;;;17.10;99.90;;;;;;5014777;28;20053;-66
2022/05/08 12:52:45;;;;;;;13.43;8.32;;;17.20;99.90;;;;;;5031423;28;20042;-68
2022/05/08 12:55:16;;;;;;;14.90;8.40;;;17.50;99.90;;;;;;5030085;28;20505;-67
2022/05/08 13:00:31;;;;;;;17.50;9.13;;;18.60;99.90;;;;;;5031402;28;20049;-67
2022/05/08 13:03:00;;;;;;;18.00;10.55;;;18.90;99.90;;;;;;5028676;28;20058;-67
2022/05/08 13:05:29;;;;;;;21.83;9.88;;;19.20;99.90;;;;;;5011693;28;20050;-67
2022/05/08 13:07:57;;;;;;;16.45;9.80;;;19.60;99.90;;;;;;5026015;28;20041;-65
2022/05/08 13:10:26;;;;;;;17.70;8.82;;;19.80;99.90;;;;;;5031181;28;20120;-65
2022/05/08 13:13:01;;;;;;;16.90;9.57;;;19.90;99.90;;;;;;5031214;28;20046;-68
2022/05/08 13:15:28;;;;;;;22.08;10.63;;;20.20;99.90;;;;;;5030111;28;20503;-68
2022/05/08 13:17:56;;;;;;;18.42;9.85;;;20.40;99.90;;;;;;5029347;28;20046;-68
2022/05/08 13:20:24;;;;;;;21.10;10.38;;;20.60;99.90;;;;;;5011262;28;20046;-68